createdAt,value
2019-03-25T00:00:43.586Z,3.82
2019-03-25T00:03:17.222Z,3.66
2019-03-25T00:05:47.669Z,3.54
2019-03-25T00:08:18.110Z,3.38
2019-03-25T00:10:48.598Z,3.32
2019-03-25T00:13:19.045Z,3.35
2019-03-25T00:15:49.540Z,3.18
2019-03-25T00:18:20.069Z,3.18
2019-03-25T00:20:50.567Z,3.13
2019-03-25T00:23:20.998Z,3.10
2019-03-25T00:25:51.457Z,3.13
2019-03-25T00:28:21.893Z,3.11
2019-03-25T00:30:52.382Z,3.14
2019-03-25T00:33:22.824Z,3.29
2019-03-25T00:35:53.301Z,3.30
2019-03-25T00:38:23.743Z,3.37
2019-03-25T00:40:54.221Z,3.18
2019-03-25T00:43:24.682Z,3.17
2019-03-25T00:45:55.131Z,3.18
2019-03-25T00:48:25.535Z,3.06
2019-03-25T00:51:01.758Z,3.09
2019-03-25T00:53:32.181Z,3.06
2019-03-25T00:56:02.579Z,3.17
2019-03-25T00:58:33.014Z,3.21
2019-03-25T01:01:03.470Z,3.30
2019-03-25T01:03:33.874Z,3.28
2019-03-25T01:06:04.432Z,3.42
2019-03-25T01:08:34.948Z,3.63
2019-03-25T01:11:05.516Z,3.72
2019-03-25T01:13:37.865Z,3.38
2019-03-25T01:16:14.336Z,3.45
2019-03-25T01:18:44.827Z,3.38
2019-03-25T01:21:15.277Z,3.34
2019-03-25T01:23:45.697Z,3.32
2019-03-25T01:26:16.109Z,3.13
2019-03-25T01:28:46.543Z,2.97
2019-03-25T01:31:16.993Z,2.96
2019-03-25T01:33:47.413Z,2.85
2019-03-25T01:36:17.879Z,2.88
2019-03-25T01:38:48.300Z,2.78
2019-03-25T01:41:18.784Z,2.85
2019-03-25T01:43:49.199Z,2.98
2019-03-25T01:46:19.694Z,3.07
2019-03-25T01:48:50.163Z,2.95
2019-03-25T01:51:21.735Z,3.07
2019-03-25T01:53:52.126Z,3.01
2019-03-25T01:56:22.603Z,3.06
2019-03-25T01:58:53.190Z,3.16
2019-03-25T02:01:23.662Z,3.25
2019-03-25T02:03:54.107Z,3.10
2019-03-25T02:06:24.578Z,3.06
2019-03-25T02:08:54.965Z,3.11
2019-03-25T02:11:25.476Z,3.02
2019-03-25T02:13:55.941Z,3.11
2019-03-25T02:16:26.393Z,3.14
2019-03-25T02:18:56.808Z,3.18
2019-03-25T02:21:27.259Z,3.20
2019-03-25T02:23:57.672Z,2.96
2019-03-25T02:26:28.147Z,2.83
2019-03-25T02:28:58.561Z,2.84
2019-03-25T02:31:29.002Z,2.78
2019-03-25T02:33:59.397Z,2.62
2019-03-25T02:36:29.860Z,2.63
2019-03-25T02:39:00.273Z,2.43
2019-03-25T02:41:30.741Z,2.35
2019-03-25T02:44:01.151Z,2.31
2019-03-25T02:46:31.621Z,2.34
2019-03-25T02:49:02.093Z,2.25
2019-03-25T02:51:33.633Z,2.22
2019-03-25T02:54:04.080Z,2.14
2019-03-25T02:56:34.542Z,1.93
2019-03-25T02:59:04.978Z,1.91
2019-03-25T03:01:35.482Z,1.93
2019-03-25T03:04:06.319Z,1.98
2019-03-25T03:06:36.783Z,2.16
2019-03-25T03:09:09.777Z,2.22
2019-03-25T03:11:40.273Z,1.85
2019-03-25T03:14:10.653Z,1.53
2019-03-25T03:16:41.119Z,1.59
2019-03-25T03:19:11.536Z,1.75
2019-03-25T03:21:42.036Z,1.72
2019-03-25T03:24:12.507Z,1.72
2019-03-25T03:26:42.990Z,1.64
2019-03-25T03:29:13.489Z,1.65
2019-03-25T03:31:43.933Z,1.58
2019-03-25T03:34:14.394Z,1.53
2019-03-25T03:36:44.858Z,1.30
2019-03-25T03:39:15.275Z,1.37
2019-03-25T03:41:45.751Z,1.20
2019-03-25T03:44:16.183Z,1.19
2019-03-25T03:46:46.649Z,1.07
2019-03-25T03:49:17.099Z,1.08
2019-03-25T03:51:48.539Z,1.00
2019-03-25T03:54:19.163Z,0.99
2019-03-25T03:56:51.410Z,1.12
2019-03-25T03:59:21.842Z,1.24
2019-03-25T04:01:52.334Z,1.40
2019-03-25T04:04:22.738Z,1.43
2019-03-25T04:06:53.226Z,1.55
2019-03-25T04:09:23.670Z,1.57
2019-03-25T04:11:54.114Z,1.63
2019-03-25T04:14:24.558Z,1.70
2019-03-25T04:16:54.997Z,1.67
2019-03-25T04:19:25.403Z,1.91
2019-03-25T04:21:55.933Z,2.04
2019-03-25T04:24:26.397Z,2.08
2019-03-25T04:26:56.882Z,2.10
2019-03-25T04:29:27.259Z,1.80
2019-03-25T04:31:57.704Z,1.61
2019-03-25T04:34:28.119Z,1.64
2019-03-25T04:36:58.591Z,1.88
2019-03-25T04:39:28.990Z,2.13
2019-03-25T04:41:59.470Z,2.15
2019-03-25T04:44:29.906Z,2.32
2019-03-25T04:47:00.390Z,2.30
2019-03-25T04:49:30.814Z,2.43
2019-03-25T04:52:02.539Z,2.48
2019-03-25T04:54:32.983Z,2.60
2019-03-25T04:57:03.481Z,2.83
2019-03-25T04:59:33.904Z,3.02
2019-03-25T05:02:04.363Z,3.37
2019-03-25T05:04:34.795Z,3.64
2019-03-25T05:07:05.260Z,3.96
2019-03-25T05:09:35.709Z,4.20
2019-03-25T05:12:06.143Z,4.45
2019-03-25T05:14:36.572Z,4.82
2019-03-25T05:17:07.056Z,5.04
2019-03-25T05:19:37.509Z,5.39
2019-03-25T05:22:08.003Z,5.63
2019-03-25T05:24:38.419Z,5.91
2019-03-25T05:27:08.881Z,6.23
2019-03-25T05:29:39.304Z,6.46
2019-03-25T05:32:09.770Z,6.68
2019-03-25T05:34:40.191Z,6.82
2019-03-25T05:37:10.662Z,7.07
2019-03-25T05:39:41.065Z,7.28
2019-03-25T05:42:11.553Z,7.55
2019-03-25T05:44:41.977Z,7.82
2019-03-25T05:47:12.428Z,7.97
2019-03-25T05:49:42.869Z,8.01
2019-03-25T05:52:14.327Z,8.23
2019-03-25T05:54:44.746Z,8.39
2019-03-25T05:57:18.053Z,8.50
2019-03-25T05:59:48.482Z,8.64
2019-03-25T06:02:19.199Z,8.74
2019-03-25T06:04:49.872Z,8.89
2019-03-25T06:07:21.797Z,8.80
2019-03-25T06:09:52.220Z,9.08
2019-03-25T06:12:22.686Z,9.06
2019-03-25T06:14:53.335Z,9.23
2019-03-25T06:17:26.546Z,9.32
2019-03-25T06:19:56.991Z,9.42
2019-03-25T06:22:27.460Z,9.48
2019-03-25T06:24:57.864Z,9.61
2019-03-25T06:27:28.357Z,9.85
2019-03-25T06:29:58.745Z,10.09
2019-03-25T06:32:29.224Z,10.22
2019-03-25T06:34:59.647Z,10.51
2019-03-25T06:37:30.097Z,10.33
2019-03-25T06:40:00.545Z,10.30
2019-03-25T06:42:30.949Z,10.39
2019-03-25T06:45:01.391Z,10.30
2019-03-25T06:47:31.838Z,10.18
2019-03-25T06:50:02.246Z,10.56
2019-03-25T06:52:33.875Z,10.74
2019-03-25T06:55:05.284Z,10.91
2019-03-25T06:57:38.447Z,10.82
2019-03-25T07:00:09.610Z,10.50
2019-03-25T07:02:40.049Z,10.61
2019-03-25T07:05:10.994Z,10.97
2019-03-25T07:07:41.526Z,11.31
2019-03-25T07:10:12.148Z,11.27
2019-03-25T07:12:42.599Z,11.48
2019-03-25T07:15:13.059Z,11.18
2019-03-25T07:17:43.531Z,11.29
2019-03-25T07:20:14.658Z,11.03
2019-03-25T07:22:45.126Z,11.32
2019-03-25T07:25:15.570Z,11.32
2019-03-25T07:27:46.050Z,11.53
2019-03-25T07:30:16.477Z,11.64
2019-03-25T07:32:46.978Z,11.87
2019-03-25T07:35:17.547Z,12.01
2019-03-25T07:37:48.014Z,11.72
2019-03-25T07:40:18.597Z,11.65
2019-03-25T07:42:49.098Z,11.71
2019-03-25T07:45:19.552Z,12.18
2019-03-25T07:47:50.018Z,12.02
2019-03-25T07:50:20.453Z,11.89
2019-03-25T07:52:51.876Z,11.51
2019-03-25T07:55:22.335Z,11.24
2019-03-25T07:57:52.825Z,11.37
2019-03-25T08:00:23.328Z,11.62
2019-03-25T08:02:54.196Z,12.08
2019-03-25T08:05:24.715Z,12.52
2019-03-25T08:07:57.922Z,12.48
2019-03-25T08:10:33.134Z,12.64
2019-03-25T08:13:03.788Z,13.11
2019-03-25T08:15:34.344Z,12.90
2019-03-25T08:18:07.386Z,12.59
2019-03-25T08:20:39.366Z,12.44
2019-03-25T08:23:09.841Z,12.56
2019-03-25T08:25:45.538Z,12.54
2019-03-25T08:28:19.519Z,12.50
2019-03-25T08:30:51.605Z,12.85
2019-03-25T08:33:24.036Z,13.23
2019-03-25T08:35:54.488Z,13.80
2019-03-25T08:38:24.904Z,13.80
2019-03-25T08:40:55.325Z,13.39
2019-03-25T08:43:26.251Z,12.60
2019-03-25T08:45:56.939Z,12.16
2019-03-25T08:48:30.620Z,12.13
2019-03-25T08:51:01.026Z,12.86
2019-03-25T08:53:39.490Z,13.46
2019-03-25T08:56:09.998Z,13.28
2019-03-25T08:58:40.467Z,12.82
2019-03-25T09:01:10.879Z,12.67
2019-03-25T09:03:41.281Z,12.90
2019-03-25T09:06:21.556Z,12.65
2019-03-25T09:08:52.090Z,12.50
2019-03-25T09:11:26.841Z,12.61
2019-03-25T09:14:01.414Z,13.27
2019-03-25T09:16:34.921Z,13.07
2019-03-25T09:19:11.687Z,12.67
2019-03-25T09:21:42.822Z,12.86
2019-03-25T09:24:13.369Z,13.28
2019-03-25T09:26:46.068Z,13.14
2019-03-25T09:29:20.003Z,13.83
2019-03-25T09:31:53.553Z,13.74
2019-03-25T09:34:25.052Z,13.83
2019-03-25T09:36:57.503Z,13.87
2019-03-25T09:39:28.004Z,14.09
2019-03-25T09:41:58.489Z,13.86
2019-03-25T09:44:29.120Z,13.88
2019-03-25T09:46:59.569Z,13.82
2019-03-25T09:49:30.154Z,13.81
2019-03-25T09:52:02.824Z,13.72
2019-03-25T09:54:34.389Z,13.45
2019-03-25T09:57:08.980Z,13.73
2019-03-25T09:59:39.445Z,13.54
2019-03-25T10:02:09.958Z,13.50
2019-03-25T10:04:40.699Z,14.16
2019-03-25T10:07:15.788Z,14.36
2019-03-25T10:09:46.310Z,14.32
2019-03-25T10:12:18.308Z,14.29
2019-03-25T10:14:48.842Z,14.12
2019-03-25T10:17:19.754Z,13.85
2019-03-25T10:19:50.315Z,13.95
2019-03-25T10:22:20.819Z,13.93
2019-03-25T10:24:51.898Z,14.14
2019-03-25T10:27:22.473Z,13.99
2019-03-25T10:33:11.761Z,14.06
2019-03-25T10:35:43.836Z,14.05
2019-03-25T10:38:19.554Z,14.40
2019-03-25T10:40:46.591Z,14.04
2019-03-25T10:43:17.061Z,14.61
2019-03-25T10:45:47.661Z,14.96
2019-03-25T10:48:21.296Z,14.75
2019-03-25T10:51:00.408Z,14.47
2019-03-25T10:53:30.809Z,14.67
2019-03-25T10:56:02.996Z,15.07
2019-03-25T10:58:33.413Z,15.60
2019-03-25T11:01:03.922Z,15.01
2019-03-25T11:03:34.340Z,14.68
2019-03-25T11:06:04.816Z,14.31
2019-03-25T11:08:35.355Z,14.25
2019-03-25T11:11:06.426Z,14.44
2019-03-25T11:13:37.139Z,15.23
2019-03-25T11:16:08.019Z,16.89
2019-03-25T11:18:38.643Z,16.78
2019-03-25T11:21:09.154Z,16.61
2019-03-25T11:23:39.594Z,16.46
2019-03-25T11:26:10.086Z,16.42
2019-03-25T11:28:40.554Z,16.55
2019-03-25T11:31:11.025Z,16.27
2019-03-25T11:33:41.445Z,16.21
2019-03-25T11:36:12.257Z,16.91
2019-03-25T11:38:45.507Z,17.60
2019-03-25T11:41:15.979Z,16.82
2019-03-25T11:43:46.414Z,17.21
2019-03-25T11:46:16.897Z,16.88
2019-03-25T11:48:47.369Z,17.51
2019-03-25T11:51:17.846Z,17.81
2019-03-25T11:53:48.396Z,18.31
2019-03-25T11:56:21.446Z,17.08
2019-03-25T11:58:53.885Z,16.48
2019-03-25T12:01:24.390Z,16.91
2019-03-25T12:03:54.938Z,17.07
2019-03-25T12:06:25.749Z,17.20
2019-03-25T12:08:56.250Z,17.23
2019-03-25T12:11:27.337Z,16.17
2019-03-25T12:14:00.842Z,16.60
2019-03-25T12:16:32.484Z,17.16
2019-03-25T12:19:05.526Z,17.21
2019-03-25T12:21:36.015Z,17.10
2019-03-25T12:24:06.595Z,18.14
2019-03-25T12:26:37.254Z,19.32
2019-03-25T12:29:10.022Z,18.31
2019-03-25T12:31:42.000Z,18.45
2019-03-25T12:34:14.857Z,18.77
2019-03-25T12:36:50.207Z,19.46
2019-03-25T12:39:20.663Z,19.68
2019-03-25T12:41:51.169Z,19.55
2019-03-25T12:44:23.351Z,18.32
2019-03-25T12:46:54.220Z,18.18
2019-03-25T12:49:27.718Z,17.40
2019-03-25T12:51:58.613Z,16.62
2019-03-25T12:54:29.415Z,17.51
2019-03-25T12:57:01.624Z,17.28
2019-03-25T12:59:40.775Z,16.25
2019-03-25T13:02:04.666Z,15.24
2019-03-25T13:04:35.201Z,15.24
2019-03-25T13:07:06.083Z,15.54
2019-03-25T13:09:36.584Z,16.02
2019-03-25T13:12:07.498Z,16.27
2019-03-25T13:14:39.064Z,15.10
2019-03-25T13:17:09.666Z,14.81
2019-03-25T13:19:40.301Z,14.34
2019-03-25T13:22:10.809Z,13.97
2019-03-25T13:24:41.982Z,14.12
2019-03-25T13:27:13.864Z,13.92
2019-03-25T13:29:52.400Z,14.25
2019-03-25T13:32:18.379Z,13.95
2019-03-25T13:34:48.891Z,13.37
2019-03-25T13:37:20.287Z,13.11
2019-03-25T13:39:51.379Z,13.02
2019-03-25T13:42:22.457Z,13.20
2019-03-25T13:44:55.593Z,13.58
2019-03-25T13:47:25.730Z,13.24
2019-03-25T13:49:58.210Z,13.43
2019-03-25T13:52:29.206Z,13.92
2019-03-25T13:55:00.469Z,13.26
2019-03-25T13:57:42.606Z,12.81
2019-03-25T14:00:13.983Z,12.74
2019-03-25T14:02:44.632Z,12.76
2019-03-25T14:05:15.329Z,12.76
2019-03-25T14:08:14.430Z,12.67
2019-03-25T14:10:44.593Z,12.52
2019-03-25T14:13:16.348Z,12.49
2019-03-25T14:15:46.803Z,12.44
2019-03-25T14:18:17.605Z,12.24
2019-03-25T14:20:52.371Z,12.02
2019-03-25T14:23:23.082Z,11.77
2019-03-25T14:25:53.566Z,11.70
2019-03-25T14:28:25.696Z,11.75
2019-03-25T14:31:00.477Z,11.50
2019-03-25T14:33:31.029Z,11.39
2019-03-25T14:36:02.103Z,11.27
2019-03-25T14:38:32.650Z,11.19
2019-03-25T14:41:08.548Z,11.27
2019-03-25T14:44:08.941Z,11.42
2019-03-25T14:46:56.496Z,11.44
2019-03-25T14:49:42.688Z,11.44
2019-03-25T14:52:14.920Z,11.44
2019-03-25T14:54:51.852Z,11.54
2019-03-25T14:57:28.207Z,11.40
2019-03-25T15:00:01.823Z,11.27
2019-03-25T15:02:32.504Z,11.33
2019-03-25T15:05:05.216Z,11.40
2019-03-25T15:07:35.651Z,11.18
2019-03-25T15:10:08.509Z,11.18
2019-03-25T15:12:40.536Z,11.05
2019-03-25T15:15:12.078Z,11.22
2019-03-25T15:17:52.656Z,11.12
2019-03-25T15:20:27.936Z,11.03
2019-03-25T15:22:58.403Z,11.08
2019-03-25T15:25:28.928Z,11.24
2019-03-25T15:27:59.551Z,11.18
2019-03-25T15:30:35.961Z,11.02
2019-03-25T15:33:06.639Z,11.07
2019-03-25T15:35:38.303Z,11.00
2019-03-25T15:38:10.437Z,10.99
2019-03-25T15:40:41.020Z,10.90
2019-03-25T15:43:11.547Z,10.90
2019-03-25T15:45:42.029Z,10.90
2019-03-25T15:48:12.519Z,10.99
2019-03-25T15:50:43.169Z,10.91
2019-03-25T15:53:13.633Z,10.87
2019-03-25T15:55:44.128Z,10.86
2019-03-25T15:58:25.338Z,10.71
2019-03-25T16:00:48.604Z,10.76
2019-03-25T16:03:19.147Z,10.81
2019-03-25T16:05:50.050Z,10.74
2019-03-25T16:08:21.926Z,10.83
2019-03-25T16:10:52.458Z,10.79
2019-03-25T16:13:22.984Z,10.72
2019-03-25T16:15:53.732Z,10.83
2019-03-25T16:18:38.175Z,10.64
2019-03-25T16:21:09.191Z,10.74
2019-03-25T16:23:39.719Z,10.69
2019-03-25T16:26:10.213Z,10.72
2019-03-25T16:28:40.624Z,10.67
2019-03-25T16:31:11.120Z,10.64
2019-03-25T16:33:41.526Z,10.56
2019-03-25T16:36:11.997Z,10.56
2019-03-25T16:38:42.416Z,10.67
2019-03-25T16:41:12.890Z,10.67
2019-03-25T16:43:43.333Z,10.64
2019-03-25T16:46:13.810Z,10.64
2019-03-25T16:48:44.287Z,10.68
2019-03-25T16:51:14.687Z,10.62
2019-03-25T16:53:45.084Z,10.53
2019-03-25T16:56:15.528Z,10.35
2019-03-25T16:58:45.932Z,10.15
2019-03-25T17:01:15.685Z,10.08
2019-03-25T17:03:46.198Z,10.20
2019-03-25T17:06:16.610Z,9.89
2019-03-25T17:08:47.047Z,9.86
2019-03-25T17:11:19.462Z,9.75
2019-03-25T17:13:49.569Z,9.72
2019-03-25T17:16:19.973Z,9.68
2019-03-25T17:18:50.399Z,9.60
2019-03-25T17:21:20.785Z,9.42
2019-03-25T17:23:51.216Z,9.41
2019-03-25T17:26:21.602Z,9.25
2019-03-25T17:28:52.067Z,9.09
2019-03-25T17:31:22.458Z,8.88
2019-03-25T17:33:52.841Z,8.80
2019-03-25T17:36:23.237Z,8.65
2019-03-25T17:38:53.709Z,8.72
2019-03-25T17:41:24.218Z,8.60
2019-03-25T17:43:54.661Z,8.55
2019-03-25T17:46:25.107Z,8.50
2019-03-25T17:48:55.540Z,8.45
2019-03-25T17:51:25.936Z,8.27
2019-03-25T17:53:56.416Z,8.18
2019-03-25T17:56:26.828Z,8.14
2019-03-25T17:58:57.278Z,8.06
2019-03-25T18:01:32.561Z,7.96
2019-03-25T18:04:02.347Z,7.95
2019-03-25T18:06:32.794Z,8.02
2019-03-25T18:09:04.468Z,7.97
2019-03-25T18:11:34.891Z,7.92
2019-03-25T18:14:05.596Z,8.01
2019-03-25T18:16:36.028Z,8.06
2019-03-25T18:19:06.499Z,8.02
2019-03-25T18:21:36.907Z,8.08
2019-03-25T18:24:09.360Z,8.13
2019-03-25T18:26:43.409Z,8.09
2019-03-25T18:29:17.055Z,8.16
2019-03-25T18:31:47.352Z,8.16
2019-03-25T18:34:17.812Z,8.07
2019-03-25T18:36:48.250Z,8.12
2019-03-25T18:39:18.696Z,8.23
2019-03-25T18:41:49.143Z,8.23
2019-03-25T18:44:19.614Z,8.12
2019-03-25T18:46:50.108Z,8.15
2019-03-25T18:49:20.634Z,8.25
2019-03-25T18:51:51.049Z,8.23
2019-03-25T18:54:21.534Z,8.25
2019-03-25T18:56:51.935Z,8.14
2019-03-25T18:59:22.415Z,8.11
2019-03-25T19:01:54.641Z,8.29
2019-03-25T19:04:27.292Z,8.15
2019-03-25T19:06:58.129Z,8.08
2019-03-25T19:09:28.596Z,8.25
2019-03-25T19:11:58.993Z,8.03
2019-03-25T19:14:29.431Z,8.09
2019-03-25T19:16:59.847Z,8.04
2019-03-25T19:19:30.313Z,8.10
2019-03-25T19:22:00.749Z,8.08
2019-03-25T19:24:31.196Z,8.07
2019-03-25T19:27:03.249Z,8.12
2019-03-25T19:29:33.700Z,7.98
2019-03-25T19:32:06.845Z,8.19
2019-03-25T19:34:36.276Z,8.21
2019-03-25T19:37:06.683Z,8.21
2019-03-25T19:39:37.202Z,8.31
2019-03-25T19:42:07.609Z,8.30
2019-03-25T19:44:38.061Z,8.41
2019-03-25T19:47:08.423Z,8.44
2019-03-25T19:49:38.862Z,8.46
2019-03-25T19:52:09.624Z,8.46
2019-03-25T19:54:40.128Z,8.34
2019-03-25T19:57:10.576Z,8.29
2019-03-25T19:59:41.058Z,8.39
2019-03-25T20:02:19.065Z,8.43
2019-03-25T20:04:44.669Z,8.41
2019-03-25T20:07:15.127Z,8.11
2019-03-25T20:09:45.652Z,8.08
2019-03-25T20:12:16.042Z,8.08
2019-03-25T20:14:46.530Z,8.15
2019-03-25T20:17:16.964Z,8.16
2019-03-25T20:19:47.409Z,8.01
2019-03-25T20:22:17.809Z,7.95
2019-03-25T20:24:48.250Z,7.98
2019-03-25T20:27:18.688Z,8.07
2019-03-25T20:29:49.179Z,7.96
2019-03-25T20:32:31.286Z,7.97
2019-03-25T20:34:51.840Z,7.97
2019-03-25T20:37:22.249Z,7.82
2019-03-25T20:39:52.719Z,7.86
2019-03-25T20:42:23.152Z,8.04
2019-03-25T20:44:53.755Z,7.98
2019-03-25T20:47:24.141Z,7.89
2019-03-25T20:49:54.595Z,7.82
2019-03-25T20:52:25.032Z,7.82
2019-03-25T20:54:55.550Z,7.71
2019-03-25T20:57:25.999Z,7.66
2019-03-25T20:59:56.475Z,7.64
2019-03-25T21:02:27.796Z,7.61
2019-03-25T21:04:58.317Z,7.61
2019-03-25T21:07:28.835Z,7.63
2019-03-25T21:09:59.378Z,7.65
2019-03-25T21:12:29.841Z,7.50
2019-03-25T21:15:00.372Z,7.56
2019-03-25T21:17:30.833Z,7.46
2019-03-25T21:20:01.329Z,7.39
2019-03-25T21:22:31.730Z,7.34
2019-03-25T21:25:02.110Z,7.31
2019-03-25T21:27:32.526Z,7.27
2019-03-25T21:30:02.951Z,7.23
2019-03-25T21:32:33.340Z,7.22
2019-03-25T21:35:04.372Z,7.21
2019-03-25T21:37:34.785Z,7.17
2019-03-25T21:40:07.707Z,7.13
2019-03-25T21:42:38.023Z,7.12
2019-03-25T21:45:10.620Z,7.18
2019-03-25T21:47:41.034Z,7.11
2019-03-25T21:50:11.762Z,7.07
2019-03-25T21:52:42.233Z,7.02
2019-03-25T21:55:12.846Z,7.03
2019-03-25T21:57:43.298Z,7.04
2019-03-25T22:00:13.956Z,7.02
2019-03-25T22:02:45.226Z,6.99
2019-03-25T22:05:15.773Z,6.99
2019-03-25T22:07:46.177Z,6.97
2019-03-25T22:10:16.588Z,6.91
2019-03-25T22:12:47.008Z,6.85
2019-03-25T22:15:17.591Z,6.77
2019-03-25T22:17:48.011Z,6.83
2019-03-25T22:20:18.539Z,6.88
2019-03-25T22:22:48.933Z,6.76
2019-03-25T22:25:19.406Z,6.80
2019-03-25T22:27:49.793Z,6.77
2019-03-25T22:30:20.238Z,6.74
2019-03-25T22:32:50.659Z,6.73
2019-03-25T22:35:21.090Z,6.66
2019-03-25T22:37:51.512Z,6.64
2019-03-25T22:40:21.991Z,6.62
2019-03-25T22:42:52.405Z,6.57
2019-03-25T22:45:29.836Z,6.57
2019-03-25T22:48:00.249Z,6.53
2019-03-25T22:50:32.068Z,6.50
2019-03-25T22:53:02.483Z,6.50
2019-03-25T22:55:32.867Z,6.43
2019-03-25T22:58:03.262Z,6.45
2019-03-25T23:00:41.697Z,6.40
2019-03-25T23:03:13.850Z,6.46
2019-03-25T23:05:44.411Z,6.41
2019-03-25T23:08:14.823Z,6.37
2019-03-25T23:10:45.297Z,6.48
2019-03-25T23:13:15.718Z,6.42
2019-03-25T23:15:46.165Z,6.35
2019-03-25T23:18:16.571Z,6.34
2019-03-25T23:20:47.028Z,6.39
2019-03-25T23:23:17.443Z,6.31
2019-03-25T23:25:47.907Z,6.27
2019-03-25T23:28:18.301Z,6.24
2019-03-25T23:30:48.738Z,6.31
2019-03-25T23:33:19.130Z,6.25
2019-03-25T23:35:49.577Z,6.28
2019-03-25T23:38:20.011Z,6.24
2019-03-25T23:40:50.370Z,6.29
2019-03-25T23:43:20.867Z,6.27
2019-03-25T23:45:51.325Z,6.24
2019-03-25T23:48:21.709Z,6.26
2019-03-25T23:50:52.153Z,6.24
2019-03-25T23:53:22.554Z,6.27
2019-03-25T23:55:53.006Z,6.25
2019-03-25T23:58:23.407Z,6.25
